Terminal Aerodrome Forecast
Issued by NWS Upton, NY

Home | Current Version | Previous Version | Text Only | Print | Product List | Glossary On
Versions: 1 2 3 4 5 6 7 8 9 10 11 12 13 14 15 16 17 18 19 20 21 22 23 24
637
FTUS41 KOKX 140242 AAB
TAFISP
TAF AMD
KISP 140242Z 1403/1424 31018G31KT P6SM FEW060
     FM140400 31019G27KT P6SM SKC
     FM141100 31015G23KT P6SM SKC
     FM141700 32013G20KT P6SM SKC
     FM142000 31010KT P6SM SKC=

USA.gov is the U.S. government's official web portal to all federal, state and local government web resources and services.